Time;durP1;ratioP1;P1;durP2;ratioP2;P2;SDS_P1;SDS_P2;PMS_P1;PMS_P2;Temp;Humidity;BMP_temperature;BMP_pressure;BME280_temperature;BME280_humidity;BME280_pressure;Samples;Min_cycle;Max_cycle;Signal;HPM_P1;HPM_P2
2022/08/21 00:01:05;;;;;;;12.77;5.05;;;;;;;;;;5005715;28;20054;-71
2022/08/21 00:03:32;;;;;;;15.60;6.05;;;;;;;;;;5009829;28;20145;-71
2022/08/21 00:05:58;;;;;;;13.75;5.30;;;;;;;;;;5009000;28;20042;-70
2022/08/21 00:08:24;;;;;;;;;;;;;;;;;;5023607;28;20346;-71
2022/08/21 00:10:51;;;;;;;19.95;6.15;;;;;;;;;;5008007;28;20260;-71
2022/08/21 00:13:18;;;;;;;14.82;5.80;;;;;;;;;;5014733;28;20447;-71
2022/08/21 00:15:44;;;;;;;16.50;5.43;;;;;;;;;;5010742;28;20439;-71
2022/08/21 00:18:10;;;;;;;;;;;;;;;;;;5023667;28;20045;-71
2022/08/21 00:20:37;;;;;;;15.48;5.80;;;;;;;;;;5021493;28;20269;-71
2022/08/21 00:23:03;;;;;;;14.68;5.38;;;;;;;;;;5018065;28;20471;-75
2022/08/21 00:25:29;;;;;;;14.07;5.45;;;;;;;;;;5008319;28;20053;-71
2022/08/21 00:27:55;;;;;;;14.23;6.25;;;;;;;;;;5008865;28;20194;-70
2022/08/21 00:30:26;;;;;;;15.98;6.15;;;;;;;;;;5006776;28;20482;-71
2022/08/21 00:32:53;;;;;;;12.93;5.90;;;;;;;;;;5018563;28;20156;-70
2022/08/21 00:35:21;;;;;;;14.82;6.18;;;;;;;;;;5016042;28;20456;-71
2022/08/21 00:37:47;;;;;;;19.00;6.25;;;;;;;;;;5007003;28;20439;-71
2022/08/21 00:40:15;;;;;;;16.30;6.20;;;;;;;;;;5008102;28;20129;-70
2022/08/21 00:42:41;;;;;;;17.50;6.85;;;;;;;;;;5009433;28;20112;-71
2022/08/21 00:45:07;;;;;;;17.52;5.75;;;;;;;;;;5008113;28;20129;-75
2022/08/21 00:47:34;;;;;;;16.42;6.40;;;;;;;;;;5008779;28;20145;-71
2022/08/21 00:50:05;;;;;;;14.88;5.90;;;;;;;;;;5010422;28;20126;-71
2022/08/21 00:52:32;;;;;;;17.55;6.65;;;;;;;;;;5004642;28;20118;-71
2022/08/21 00:54:59;;;;;;;15.90;5.82;;;;;;;;;;5006065;28;20428;-71
2022/08/21 00:57:30;;;;;;;13.15;5.55;;;;;;;;;;5009912;28;20042;-71
2022/08/21 00:59:58;;;;;;;20.58;5.70;;;;;;;;;;5020162;28;20108;-71
2022/08/21 01:02:25;;;;;;;13.50;6.35;;;;;;;;;;5008327;28;20073;-71
2022/08/21 01:04:51;;;;;;;13.65;5.90;;;;;;;;;;5019688;28;20073;-71
2022/08/21 01:07:17;;;;;;;15.38;6.10;;;;;;;;;;5007890;28;20435;-71
2022/08/21 01:09:44;;;;;;;13.43;5.70;;;;;;;;;;5016656;28;20038;-71
2022/08/21 01:12:11;;;;;;;17.00;6.35;;;;;;;;;;5007009;28;20046;-75
2022/08/21 01:14:38;;;;;;;17.85;6.38;;;;;;;;;;5012869;28;20495;-71
2022/08/21 01:17:04;;;;;;;16.98;5.80;;;;;;;;;;5009205;28;20133;-71
2022/08/21 01:19:31;;;;;;;17.02;5.80;;;;;;;;;;5007673;28;20237;-71
2022/08/21 01:21:57;;;;;;;14.70;6.32;;;;;;;;;;5006714;28;20086;-71
2022/08/21 01:24:23;;;;;;;;;;;;;;;;;;5008236;28;20540;-71
2022/08/21 01:26:50;;;;;;;17.90;6.20;;;;;;;;;;5006401;28;20020;-71
2022/08/21 01:29:16;;;;;;;15.60;6.13;;;;;;;;;;5007883;28;20068;-71
2022/08/21 01:31:42;;;;;;;19.33;6.80;;;;;;;;;;5005802;28;20410;-72
2022/08/21 01:34:08;;;;;;;;;;;;;;;;;;5022601;28;20063;-70
2022/08/21 01:36:34;;;;;;;18.17;6.70;;;;;;;;;;5014608;28;19929;-70
2022/08/21 01:39:00;;;;;;;16.38;6.80;;;;;;;;;;5012482;28;20088;-71
2022/08/21 01:41:26;;;;;;;;;;;;;;;;;;5010825;28;20041;-71
2022/08/21 01:43:52;;;;;;;14.88;6.57;;;;;;;;;;5019202;28;19991;-71
2022/08/21 01:46:19;;;;;;;16.45;6.03;;;;;;;;;;5017647;28;20065;-71
2022/08/21 01:48:45;;;;;;;15.80;6.53;;;;;;;;;;5007460;28;20042;-70
2022/08/21 01:51:11;;;;;;;16.35;6.57;;;;;;;;;;5005481;28;20046;-70
2022/08/21 01:53:38;;;;;;;;;;;;;;;;;;5011926;28;20057;-71
2022/08/21 01:56:05;;;;;;;16.37;6.83;;;;;;;;;;5021763;28;19921;-70
2022/08/21 01:58:33;;;;;;;14.25;6.57;;;;;;;;;;5005931;28;20044;-70
2022/08/21 02:00:59;;;;;;;18.88;6.45;;;;;;;;;;5011925;28;20102;-71
2022/08/21 02:03:25;;;;;;;17.50;6.75;;;;;;;;;;5004535;28;20156;-71
2022/08/21 02:05:51;;;;;;;;;;;;;;;;;;5002311;28;20451;-71
2022/08/21 02:08:17;;;;;;;20.85;7.50;;;;;;;;;;5005164;28;19951;-70
2022/08/21 02:10:43;;;;;;;19.83;6.38;;;;;;;;;;5011988;28;20045;-71
2022/08/21 02:13:09;;;;;;;13.82;6.82;;;;;;;;;;4988281;28;20394;-70
2022/08/21 02:15:36;;;;;;;16.88;6.55;;;;;;;;;;4990092;28;20523;-71
2022/08/21 02:18:02;;;;;;;17.70;6.88;;;;;;;;;;5005754;28;20164;-70
2022/08/21 02:20:36;;;;;;;21.33;7.85;;;;;;;;;;5005649;28;20123;-71
2022/08/21 02:23:03;;;;;;;17.15;7.57;;;;;;;;;;5006888;28;20073;-71
2022/08/21 02:25:30;;;;;;;16.90;7.53;;;;;;;;;;5010950;28;20095;-71
2022/08/21 02:27:56;;;;;;;17.23;6.82;;;;;;;;;;5009479;28;20069;-71
2022/08/21 02:30:34;;;;;;;17.20;7.32;;;;;;;;;;5008797;28;20106;-75
2022/08/21 02:33:00;;;;;;;19.75;7.35;;;;;;;;;;5010612;28;20057;-71
2022/08/21 02:35:27;;;;;;;18.40;7.60;;;;;;;;;;5017223;28;20147;-71
2022/08/21 02:37:55;;;;;;;19.90;7.72;;;;;;;;;;5010076;28;20141;-71
2022/08/21 02:40:23;;;;;;;17.30;7.93;;;;;;;;;;5009078;28;20053;-70
2022/08/21 02:42:49;;;;;;;18.63;8.73;;;;;;;;;;5010174;28;20096;-70
2022/08/21 02:45:19;;;;;;;22.70;8.82;;;;;;;;;;5010663;28;20045;-70
2022/08/21 02:47:52;;;;;;;21.10;7.70;;;;;;;;;;5008363;28;20488;-70
2022/08/21 02:50:22;;;;;;;17.33;7.90;;;;;;;;;;5018052;28;20324;-70
2022/08/21 02:52:49;;;;;;;15.18;7.35;;;;;;;;;;5009837;28;20129;-70
2022/08/21 02:55:16;;;;;;;21.80;7.63;;;;;;;;;;5016414;28;20045;-70
2022/08/21 02:57:42;;;;;;;18.60;7.88;;;;;;;;;;5011754;28;20081;-70
2022/08/21 03:00:10;;;;;;;15.55;7.50;;;;;;;;;;5010259;28;20053;-70
2022/08/21 03:02:36;;;;;;;18.60;7.80;;;;;;;;;;5019798;28;20098;-70
2022/08/21 03:05:03;;;;;;;18.63;7.53;;;;;;;;;;5012453;28;20045;-69
2022/08/21 03:07:30;;;;;;;17.33;8.15;;;;;;;;;;5017307;28;20050;-70
2022/08/21 03:09:56;;;;;;;19.35;7.75;;;;;;;;;;5024149;28;20124;-70
2022/08/21 03:12:22;;;;;;;20.48;8.32;;;;;;;;;;5009927;28;20046;-69
2022/08/21 03:14:48;;;;;;;20.23;9.05;;;;;;;;;;4992211;28;20046;-70
2022/08/21 03:17:14;;;;;;;22.30;8.07;;;;;;;;;;5007459;28;20081;-70
2022/08/21 03:19:40;;;;;;;15.32;7.57;;;;;;;;;;5010141;28;20093;-75
2022/08/21 03:22:06;;;;;;;18.15;8.23;;;;;;;;;;5008240;28;20158;-70
2022/08/21 03:24:32;;;;;;;17.70;7.82;;;;;;;;;;5009957;28;20054;-70
2022/08/21 03:26:59;;;;;;;15.07;7.82;;;;;;;;;;5014909;28;20090;-70
2022/08/21 03:29:25;;;;;;;18.85;7.55;;;;;;;;;;5008691;28;20459;-70
2022/08/21 03:31:53;;;;;;;;;;;;;;;;;;5009172;28;20081;-72
2022/08/21 03:34:19;;;;;;;20.35;8.38;;;;;;;;;;4990587;28;20408;-70
2022/08/21 03:36:46;;;;;;;18.77;8.15;;;;;;;;;;4995180;28;20045;-70
2022/08/21 03:39:12;;;;;;;17.15;7.85;;;;;;;;;;5007839;28;20046;-70
2022/08/21 03:41:38;;;;;;;21.98;8.60;;;;;;;;;;5003166;28;20073;-71
2022/08/21 03:44:04;;;;;;;17.85;8.35;;;;;;;;;;5005689;28;20059;-70
2022/08/21 03:46:30;;;;;;;19.58;8.48;;;;;;;;;;5009312;28;20054;-69
2022/08/21 03:48:56;;;;;;;15.43;8.15;;;;;;;;;;4999886;28;20042;-70
2022/08/21 03:51:22;;;;;;;21.30;8.65;;;;;;;;;;4998717;28;20549;-70
2022/08/21 03:53:48;;;;;;;18.73;9.23;;;;;;;;;;5006915;28;20390;-70
2022/08/21 03:56:16;;;;;;;17.10;8.00;;;;;;;;;;5008676;28;20119;-70
2022/08/21 03:58:42;;;;;;;17.50;8.25;;;;;;;;;;5005499;28;20046;-70
2022/08/21 04:01:08;;;;;;;14.63;7.72;;;;;;;;;;5008555;28;20076;-70
2022/08/21 04:03:36;;;;;;;19.23;7.95;;;;;;;;;;5006109;28;20489;-72
2022/08/21 04:06:02;;;;;;;17.95;9.32;;;;;;;;;;5007694;28;20478;-70
2022/08/21 04:08:29;;;;;;;19.88;9.20;;;;;;;;;;5019483;28;20469;-70
2022/08/21 04:10:57;;;;;;;18.77;8.98;;;;;;;;;;5011756;28;20128;-70
2022/08/21 04:13:23;;;;;;;19.98;9.45;;;;;;;;;;5007726;28;20054;-71
2022/08/21 04:15:50;;;;;;;19.15;8.85;;;;;;;;;;5008629;28;20466;-71
2022/08/21 04:18:16;;;;;;;18.55;8.63;;;;;;;;;;5007577;28;20438;-71
2022/08/21 04:20:43;;;;;;;16.25;7.90;;;;;;;;;;5008021;28;20050;-71
2022/08/21 04:23:09;;;;;;;21.45;9.05;;;;;;;;;;5019272;28;20204;-70
2022/08/21 04:25:35;;;;;;;16.25;8.15;;;;;;;;;;5008800;28;20045;-70
2022/08/21 04:28:02;;;;;;;19.20;9.05;;;;;;;;;;5017864;28;20123;-70
2022/08/21 04:30:28;;;;;;;19.27;9.00;;;;;;;;;;5008948;28;20117;-70
2022/08/21 04:32:54;;;;;;;;;;;;;;;;;;5022806;28;20056;-69
2022/08/21 04:35:21;;;;;;;17.75;8.60;;;;;;;;;;5008727;28;20349;-70
2022/08/21 04:37:48;;;;;;;21.38;9.10;;;;;;;;;;5007769;28;20084;-70
2022/08/21 04:40:15;;;;;;;21.17;9.07;;;;;;;;;;5006750;28;20045;-70
2022/08/21 04:42:45;;;;;;;16.15;8.20;;;;;;;;;;4997145;28;20050;-73
2022/08/21 04:45:20;;;;;;;16.42;8.45;;;;;;;;;;5009925;28;20136;-70
2022/08/21 04:47:51;;;;;;;17.88;8.48;;;;;;;;;;5021978;28;20064;-69
2022/08/21 04:50:17;;;;;;;18.02;8.68;;;;;;;;;;5007000;28;20084;-69
2022/08/21 04:52:43;;;;;;;21.20;8.90;;;;;;;;;;5008846;28;20045;-69
2022/08/21 04:55:10;;;;;;;17.73;8.25;;;;;;;;;;5004862;28;20052;-70
2022/08/21 04:57:36;;;;;;;18.52;9.15;;;;;;;;;;5007795;28;20069;-69
2022/08/21 05:00:04;;;;;;;17.67;8.23;;;;;;;;;;5007293;28;20522;-69
2022/08/21 05:02:32;;;;;;;19.48;8.63;;;;;;;;;;5008316;28;20141;-70
2022/08/21 05:04:59;;;;;;;18.75;8.55;;;;;;;;;;4993389;28;20071;-69
2022/08/21 05:07:24;;;;;;;;;;;;;;;;;;4989624;28;20110;-69
2022/08/21 05:09:51;;;;;;;18.65;8.35;;;;;;;;;;5018851;28;19929;-66
2022/08/21 05:12:17;;;;;;;18.17;8.73;;;;;;;;;;5025658;28;20064;-69
2022/08/21 05:14:43;;;;;;;;;;;;;;;;;;5012712;28;20371;-73
2022/08/21 05:17:11;;;;;;;21.02;8.80;;;;;;;;;;5016035;28;19932;-69
2022/08/21 05:19:37;;;;;;;18.70;8.35;;;;;;;;;;5016886;28;20053;-69
2022/08/21 05:22:03;;;;;;;17.50;8.50;;;;;;;;;;5009713;28;20061;-71
2022/08/21 05:24:33;;;;;;;18.58;8.32;;;;;;;;;;5003275;28;20053;-70
2022/08/21 05:26:59;;;;;;;18.05;8.85;;;;;;;;;;5010597;28;20129;-69
2022/08/21 05:29:25;;;;;;;;;;;;;;;;;;5007862;28;20094;-69
2022/08/21 05:31:52;;;;;;;19.77;7.72;;;;;;;;;;5007739;28;20064;-70
2022/08/21 05:34:23;;;;;;;18.83;8.30;;;;;;;;;;5006151;28;20358;-70
2022/08/21 05:36:49;;;;;;;22.15;8.27;;;;;;;;;;5005633;28;20438;-70
2022/08/21 05:39:15;;;;;;;;;;;;;;;;;;5019809;28;20058;-69
2022/08/21 05:41:41;;;;;;;17.58;7.65;;;;;;;;;;5008203;28;19991;-68
2022/08/21 05:44:07;;;;;;;21.85;7.82;;;;;;;;;;5006234;28;20070;-69
2022/08/21 05:46:33;;;;;;;15.38;8.00;;;;;;;;;;5007007;28;20069;-69
2022/08/21 05:48:59;;;;;;;17.23;7.20;;;;;;;;;;5020581;28;20135;-69
2022/08/21 05:51:25;;;;;;;15.55;7.75;;;;;;;;;;5007665;28;20077;-69
2022/08/21 05:53:51;;;;;;;19.50;7.70;;;;;;;;;;5005894;28;20058;-72
2022/08/21 05:56:17;;;;;;;16.98;7.60;;;;;;;;;;5005444;28;20042;-68
2022/08/21 05:58:43;;;;;;;21.95;7.88;;;;;;;;;;5016561;28;20093;-69
2022/08/21 06:01:09;;;;;;;18.52;7.22;;;;;;;;;;5006250;28;20122;-69
2022/08/21 06:03:40;;;;;;;18.63;7.57;;;;;;;;;;5011881;28;20565;-70
2022/08/21 06:06:06;;;;;;;16.00;7.30;;;;;;;;;;4982963;28;20073;-68
2022/08/21 06:08:33;;;;;;;;;;;;;;;;;;5010607;28;20096;-68
2022/08/21 06:11:00;;;;;;;19.02;7.57;;;;;;;;;;5010079;28;19997;-70
2022/08/21 06:13:26;;;;;;;18.80;7.32;;;;;;;;;;5007771;28;20045;-69
2022/08/21 06:16:03;;;;;;;19.85;8.07;;;;;;;;;;5010520;28;20060;-70
2022/08/21 06:18:29;;;;;;;19.23;7.63;;;;;;;;;;5009039;28;20117;-71
2022/08/21 06:20:55;;;;;;;;;;;;;;;;;;5009956;28;20042;-69
2022/08/21 06:23:21;;;;;;;17.15;6.93;;;;;;;;;;5002804;28;20231;-68
2022/08/21 06:25:47;;;;;;;19.40;7.80;;;;;;;;;;5006358;28;20485;-69
2022/08/21 06:28:14;;;;;;;19.13;7.43;;;;;;;;;;5005633;28;20249;-69
2022/08/21 06:30:40;;;;;;;17.08;6.78;;;;;;;;;;5008552;28;20128;-69
2022/08/21 06:33:07;;;;;;;18.90;7.10;;;;;;;;;;5010076;28;20145;-69
2022/08/21 06:35:36;;;;;;;19.90;6.82;;;;;;;;;;5010609;28;20080;-68
2022/08/21 06:38:02;;;;;;;19.48;7.47;;;;;;;;;;5011601;28;20229;-67
2022/08/21 06:40:28;;;;;;;16.15;6.97;;;;;;;;;;5020269;28;20124;-67
2022/08/21 06:42:54;;;;;;;;;;;;;;;;;;5012627;28;20065;-76
2022/08/21 06:45:21;;;;;;;22.02;6.90;;;;;;;;;;5007440;28;19961;-74
2022/08/21 06:47:47;;;;;;;16.55;6.95;;;;;;;;;;5012962;28;20046;-71
2022/08/21 06:50:13;;;;;;;17.48;6.60;;;;;;;;;;5019737;28;20059;-70
2022/08/21 06:52:39;;;;;;;;;;;;;;;;;;5020652;28;20045;-68
2022/08/21 06:55:06;;;;;;;16.05;6.55;;;;;;;;;;5004612;28;19932;-69
2022/08/21 06:57:32;;;;;;;18.73;5.47;;;;;;;;;;5007755;28;20069;-69
2022/08/21 06:59:58;;;;;;;16.90;6.03;;;;;;;;;;5005216;28;20038;-79
2022/08/21 07:02:24;;;;;;;;;;;;;;;;;;5022578;28;20040;-71
2022/08/21 07:04:50;;;;;;;22.02;5.97;;;;;;;;;;5002558;28;19925;-72
2022/08/21 07:07:17;;;;;;;22.63;6.00;;;;;;;;;;5005781;28;20046;-72
2022/08/21 07:09:42;;;;;;;;;;;;;;;;;;5010711;28;20140;-74
2022/08/21 07:12:09;;;;;;;16.15;5.00;;;;;;;;;;5005617;28;20008;-68
2022/08/21 07:14:35;;;;;;;23.20;5.60;;;;;;;;;;5022491;28;20042;-68
2022/08/21 07:17:01;;;;;;;;;;;;;;;;;;5009988;28;20049;-70
2022/08/21 07:19:27;;;;;;;15.50;4.40;;;;;;;;;;5001848;28;20068;-68
2022/08/21 07:21:57;;;;;;;19.63;4.90;;;;;;;;;;5006718;28;20049;-67
2022/08/21 07:24:23;;;;;;;14.63;4.38;;;;;;;;;;5014974;28;20061;-68
2022/08/21 07:26:49;;;;;;;15.23;4.78;;;;;;;;;;5021091;28;20064;-67
2022/08/21 07:29:15;;;;;;;12.98;4.22;;;;;;;;;;5030254;28;20125;-68
2022/08/21 07:31:42;;;;;;;15.30;4.93;;;;;;;;;;5017387;28;20131;-70
2022/08/21 07:34:08;;;;;;;23.02;4.70;;;;;;;;;;5007744;28;20042;-66
2022/08/21 07:36:34;;;;;;;16.48;4.53;;;;;;;;;;5008718;28;20382;-68
2022/08/21 07:39:00;;;;;;;17.20;4.47;;;;;;;;;;5010757;28;20200;-66
2022/08/21 07:41:28;;;;;;;;;;;;;;;;;;5010094;28;20037;-70
2022/08/21 07:43:54;;;;;;;14.32;3.70;;;;;;;;;;5018357;28;19927;-77
2022/08/21 07:46:21;;;;;;;16.30;4.10;;;;;;;;;;5003608;28;20491;-73
2022/08/21 07:48:47;;;;;;;16.05;4.25;;;;;;;;;;5008679;28;20054;-71
2022/08/21 07:51:13;;;;;;;;;;;;;;;;;;5016570;28;20053;-69
2022/08/21 07:53:39;;;;;;;14.07;3.70;;;;;;;;;;5008425;28;19921;-73
2022/08/21 07:56:06;;;;;;;14.90;3.67;;;;;;;;;;5009536;28;20054;-70
2022/08/21 07:58:32;;;;;;;12.48;3.38;;;;;;;;;;5010099;28;20049;-70
2022/08/21 08:00:59;;;;;;;11.85;3.60;;;;;;;;;;5004682;28;20178;-69
2022/08/21 08:03:25;;;;;;;15.95;3.80;;;;;;;;;;5009955;28;20072;-69
2022/08/21 08:05:51;;;;;;;;;;;;;;;;;;5009745;28;20060;-68
2022/08/21 08:08:18;;;;;;;16.05;3.65;;;;;;;;;;5007172;28;19933;-68
2022/08/21 08:10:43;;;;;;;;;;;;;;;;;;5006222;28;20052;-68
2022/08/21 08:13:10;;;;;;;17.27;3.85;;;;;;;;;;5007606;28;19921;-75
2022/08/21 08:15:36;;;;;;;;;;;;;;;;;;5006510;28;20103;-71
2022/08/21 08:18:02;;;;;;;14.50;3.80;;;;;;;;;;5000573;28;19937;-74
2022/08/21 08:20:28;;;;;;;;;;;;;;;;;;5006918;28;20203;-68
2022/08/21 08:22:55;;;;;;;17.33;4.07;;;;;;;;;;5002118;28;19921;-77
2022/08/21 08:25:22;;;;;;;16.90;3.95;;;;;;;;;;5005080;28;20050;-65
2022/08/21 08:27:48;;;;;;;13.77;3.50;;;;;;;;;;5006353;28;20439;-67
2022/08/21 08:30:14;;;;;;;;;;;;;;;;;;5006239;28;20042;-67
2022/08/21 08:32:41;;;;;;;16.35;4.30;;;;;;;;;;5008885;28;20353;-67
2022/08/21 08:35:07;;;;;;;16.25;3.75;;;;;;;;;;5003370;28;20124;-70
2022/08/21 08:37:34;;;;;;;16.27;3.72;;;;;;;;;;5007461;28;20130;-70
2022/08/21 08:40:00;;;;;;;14.50;3.80;;;;;;;;;;5008642;28;20125;-72
2022/08/21 08:42:32;;;;;;;16.40;4.05;;;;;;;;;;5006311;28;20060;-70
2022/08/21 08:45:04;;;;;;;20.65;4.57;;;;;;;;;;5002551;28;20358;-70
2022/08/21 08:47:31;;;;;;;17.77;4.90;;;;;;;;;;5005205;28;20042;-67
2022/08/21 08:50:00;;;;;;;16.83;4.45;;;;;;;;;;5001599;28;20038;-70
2022/08/21 08:52:34;;;;;;;17.02;4.03;;;;;;;;;;5002435;28;20522;-69
2022/08/21 08:55:13;;;;;;;15.10;4.38;;;;;;;;;;4995084;28;20038;-69
2022/08/21 08:57:40;;;;;;;16.17;4.65;;;;;;;;;;5004416;28;20045;-75
2022/08/21 09:00:10;;;;;;;20.02;4.97;;;;;;;;;;5004179;28;20112;-76
2022/08/21 09:02:39;;;;;;;17.17;4.53;;;;;;;;;;5006209;28;20128;-74
2022/08/21 09:05:05;;;;;;;23.08;5.15;;;;;;;;;;5014727;28;20049;-73
2022/08/21 09:07:47;;;;;;;17.67;4.80;;;;;;;;;;5005802;28;20438;-73
2022/08/21 09:10:21;;;;;;;16.65;4.68;;;;;;;;;;5007780;28;20053;-70
2022/08/21 09:12:50;;;;;;;16.65;4.43;;;;;;;;;;5003498;28;20046;-74
2022/08/21 09:15:22;;;;;;;20.73;5.43;;;;;;;;;;5008912;28;20042;-74
2022/08/21 09:18:07;;;;;;;15.75;3.97;;;;;;;;;;5008104;28;20053;-73
2022/08/21 09:20:39;;;;;;;16.15;4.57;;;;;;;;;;4998282;28;20447;-66
2022/08/21 09:23:05;;;;;;;19.95;4.78;;;;;;;;;;5008091;28;20053;-67
2022/08/21 09:25:32;;;;;;;23.95;4.93;;;;;;;;;;5005567;28;20478;-65
2022/08/21 09:27:58;;;;;;;18.45;4.60;;;;;;;;;;4999089;28;20148;-72
2022/08/21 09:30:24;;;;;;;;;;;;;;;;;;5017024;28;20475;-68
2022/08/21 09:32:50;;;;;;;17.10;5.15;;;;;;;;;;5002481;28;19921;-68
2022/08/21 09:35:17;;;;;;;;;;;;;;;;;;5003407;28;20053;-69
2022/08/21 09:37:45;;;;;;;16.27;4.53;;;;;;;;;;5005349;28;19974;-72
2022/08/21 09:40:35;;;;;;;18.50;4.10;;;;;;;;;;5006322;28;20068;-68
2022/08/21 09:43:13;;;;;;;18.25;4.95;;;;;;;;;;4989195;28;20061;-68
2022/08/21 09:45:41;;;;;;;15.95;4.15;;;;;;;;;;4997225;28;20618;-68
2022/08/21 09:48:24;;;;;;;19.55;4.47;;;;;;;;;;4993302;28;20049;-72
2022/08/21 09:50:51;;;;;;;17.33;4.60;;;;;;;;;;5000022;28;20068;-66
2022/08/21 09:53:17;;;;;;;16.25;4.70;;;;;;;;;;5004442;28;20124;-69
2022/08/21 09:58:44;;;;;;;15.27;4.20;;;;;;;;;;5007548;28;20268;-68
2022/08/21 10:01:16;;;;;;;15.00;3.85;;;;;;;;;;4998890;28;20081;-67
2022/08/21 10:03:42;;;;;;;14.68;3.67;;;;;;;;;;5001419;28;20058;-66
2022/08/21 10:06:10;;;;;;;;;;;;;;;;;;5006457;28;20065;-67
2022/08/21 10:08:37;;;;;;;16.48;4.60;;;;;;;;;;5000748;28;20020;-66
2022/08/21 10:11:06;;;;;;;16.25;4.32;;;;;;;;;;5003343;28;20053;-64
2022/08/21 10:13:44;;;;;;;17.08;3.97;;;;;;;;;;5006084;28;20049;-65
2022/08/21 10:16:20;;;;;;;19.50;3.70;;;;;;;;;;5001161;28;20046;-65
2022/08/21 10:19:12;;;;;;;13.17;3.17;;;;;;;;;;5006642;28;20124;-66
2022/08/21 10:21:47;;;;;;;13.77;4.00;;;;;;;;;;4999432;28;20042;-65
2022/08/21 10:24:23;;;;;;;15.98;3.85;;;;;;;;;;5007463;28;20085;-66
2022/08/21 10:27:08;;;;;;;11.30;3.50;;;;;;;;;;4999132;28;20098;-65
2022/08/21 10:29:40;;;;;;;19.05;4.20;;;;;;;;;;5006142;28;20085;-65
2022/08/21 10:32:16;;;;;;;13.23;3.63;;;;;;;;;;4996701;28;20042;-65
2022/08/21 10:34:48;;;;;;;13.93;3.50;;;;;;;;;;5009659;28;20410;-69
2022/08/21 10:37:34;;;;;;;12.52;3.28;;;;;;;;;;5001683;28;20042;-69
2022/08/21 10:40:11;;;;;;;15.55;3.42;;;;;;;;;;4995359;28;20069;-69
2022/08/21 10:42:37;;;;;;;15.30;3.90;;;;;;;;;;5013456;28;20137;-68
2022/08/21 10:45:03;;;;;;;;;;;;;;;;;;5008526;28;20045;-67
2022/08/21 10:47:41;;;;;;;16.27;4.07;;;;;;;;;;4999889;28;19936;-71
2022/08/21 10:50:25;;;;;;;12.70;3.58;;;;;;;;;;5009179;28;20075;-66
2022/08/21 10:53:21;;;;;;;13.63;3.88;;;;;;;;;;5006034;28;20132;-68
2022/08/21 10:55:57;;;;;;;12.73;3.90;;;;;;;;;;4988522;28;21891;-64
2022/08/21 10:58:50;;;;;;;17.77;4.20;;;;;;;;;;5006949;28;20521;-64
2022/08/21 11:01:21;;;;;;;12.65;3.90;;;;;;;;;;4995816;28;20054;-64
2022/08/21 11:03:54;;;;;;;16.42;4.80;;;;;;;;;;5002218;28;20088;-66
2022/08/21 11:06:28;;;;;;;13.40;4.07;;;;;;;;;;5004723;28;20469;-65
2022/08/21 11:09:12;;;;;;;12.88;3.67;;;;;;;;;;5007820;28;20203;-66
2022/08/21 11:11:53;;;;;;;17.10;4.60;;;;;;;;;;5007831;28;20081;-66
2022/08/21 11:14:40;;;;;;;14.60;3.90;;;;;;;;;;4999641;28;20541;-65
2022/08/21 11:17:09;;;;;;;14.32;4.45;;;;;;;;;;5002866;28;20504;-64
2022/08/21 11:19:45;;;;;;;13.32;4.35;;;;;;;;;;4999515;28;20060;-67
2022/08/21 11:22:26;;;;;;;16.98;4.80;;;;;;;;;;4997162;28;20042;-63
2022/08/21 11:25:01;;;;;;;14.77;3.45;;;;;;;;;;5003880;28;20055;-64
2022/08/21 11:27:37;;;;;;;19.10;4.00;;;;;;;;;;5013124;28;20057;-63
2022/08/21 11:30:03;;;;;;;16.38;4.28;;;;;;;;;;5000530;28;20045;-64
2022/08/21 11:32:29;;;;;;;13.63;3.78;;;;;;;;;;5009285;28;20065;-64
2022/08/21 11:34:57;;;;;;;;;;;;;;;;;;5002126;28;20054;-65
2022/08/21 11:37:32;;;;;;;14.43;3.83;;;;;;;;;;5001836;28;19995;-64
2022/08/21 11:40:10;;;;;;;19.02;4.85;;;;;;;;;;5004806;28;20041;-65
2022/08/21 11:42:58;;;;;;;15.05;4.32;;;;;;;;;;5009952;28;20168;-68
2022/08/21 11:45:37;;;;;;;14.77;3.55;;;;;;;;;;4995204;28;20076;-65
2022/08/21 11:48:21;;;;;;;16.15;3.80;;;;;;;;;;5000211;28;20061;-66
2022/08/21 11:50:48;;;;;;;16.35;3.70;;;;;;;;;;5004611;28;20045;-65
2022/08/21 11:53:23;;;;;;;15.30;4.13;;;;;;;;;;5009702;28;20121;-63
2022/08/21 11:55:49;;;;;;;15.33;3.63;;;;;;;;;;4998676;28;20041;-65
2022/08/21 11:58:18;;;;;;;18.17;4.30;;;;;;;;;;4989504;28;20046;-66
2022/08/21 12:00:49;;;;;;;16.23;3.90;;;;;;;;;;5004791;28;20351;-70
2022/08/21 12:03:17;;;;;;;14.75;3.90;;;;;;;;;;4998603;28;20044;-66
2022/08/21 12:05:52;;;;;;;13.18;3.63;;;;;;;;;;5008370;28;20061;-72
2022/08/21 12:08:36;;;;;;;11.63;3.67;;;;;;;;;;5007457;28;20125;-68
2022/08/21 12:11:09;;;;;;;11.10;3.22;;;;;;;;;;5006962;28;20064;-67
2022/08/21 12:13:38;;;;;;;13.23;3.22;;;;;;;;;;5008423;28;20084;-68
2022/08/21 12:16:12;;;;;;;13.32;3.63;;;;;;;;;;5000412;28;20038;-71
2022/08/21 12:18:39;;;;;;;11.55;3.60;;;;;;;;;;4990307;28;20112;-68
2022/08/21 12:21:05;;;;;;;11.95;3.33;;;;;;;;;;5003040;28;20049;-71
2022/08/21 12:23:45;;;;;;;12.00;3.13;;;;;;;;;;5005126;28;20146;-68
2022/08/21 12:26:26;;;;;;;11.80;3.45;;;;;;;;;;5004236;28;20050;-66
2022/08/21 12:29:03;;;;;;;16.08;3.58;;;;;;;;;;5005224;28;20424;-68
2022/08/21 12:31:29;;;;;;;12.90;3.63;;;;;;;;;;4999824;28;20054;-75
2022/08/21 12:33:58;;;;;;;15.05;3.30;;;;;;;;;;5000682;28;20050;-71
2022/08/21 12:36:30;;;;;;;12.52;3.20;;;;;;;;;;4996281;28;20465;-71
2022/08/21 12:39:07;;;;;;;12.75;3.28;;;;;;;;;;5009443;28;20096;-68
2022/08/21 12:41:38;;;;;;;12.77;3.75;;;;;;;;;;5008893;28;20137;-68
2022/08/21 12:44:13;;;;;;;11.65;3.20;;;;;;;;;;4998594;28;20461;-69
2022/08/21 12:46:48;;;;;;;10.40;3.40;;;;;;;;;;4990592;28;20057;-68
2022/08/21 12:49:14;;;;;;;15.48;3.45;;;;;;;;;;4989772;28;20104;-68
2022/08/21 12:51:40;;;;;;;;;;;;;;;;;;4990893;28;20050;-69
2022/08/21 12:54:06;;;;;;;15.65;3.47;;;;;;;;;;4989436;28;19972;-68
2022/08/21 12:56:32;;;;;;;;;;;;;;;;;;4997928;28;20101;-68
2022/08/21 12:59:16;;;;;;;14.32;2.80;;;;;;;;;;5004679;28;19970;-70
2022/08/21 13:01:48;;;;;;;10.43;2.90;;;;;;;;;;4999840;28;20081;-67
2022/08/21 13:04:17;;;;;;;13.90;2.70;;;;;;;;;;5008629;28;20046;-67
2022/08/21 13:06:48;;;;;;;11.25;2.97;;;;;;;;;;5008404;28;20061;-68
2022/08/21 13:09:19;;;;;;;9.45;2.90;;;;;;;;;;5005144;28;20050;-68
2022/08/21 13:11:47;;;;;;;12.88;2.90;;;;;;;;;;5006567;28;20052;-71
2022/08/21 13:14:25;;;;;;;11.82;2.92;;;;;;;;;;5003867;28;20105;-68
2022/08/21 13:16:55;;;;;;;10.00;2.53;;;;;;;;;;4988581;28;20137;-69
2022/08/21 13:19:22;;;;;;;11.35;3.10;;;;;;;;;;4989142;28;20460;-68
2022/08/21 13:21:48;;;;;;;10.18;2.72;;;;;;;;;;4994456;28;20123;-70
2022/08/21 13:24:18;;;;;;;11.88;2.80;;;;;;;;;;4991763;28;20046;-68
2022/08/21 13:26:44;;;;;;;14.65;3.08;;;;;;;;;;4989477;28;20089;-68
2022/08/21 13:29:12;;;;;;;13.57;3.53;;;;;;;;;;5001433;28;20099;-71
2022/08/21 13:31:40;;;;;;;11.43;2.95;;;;;;;;;;5002360;28;20141;-73
2022/08/21 13:34:08;;;;;;;10.63;3.00;;;;;;;;;;4989015;28;20439;-69
2022/08/21 13:36:36;;;;;;;12.00;2.90;;;;;;;;;;4994957;28;20046;-64
2022/08/21 13:39:07;;;;;;;16.45;3.08;;;;;;;;;;5007898;28;20157;-71
2022/08/21 13:41:36;;;;;;;11.38;2.75;;;;;;;;;;5000598;28;20058;-66
2022/08/21 13:44:13;;;;;;;13.07;3.00;;;;;;;;;;4987904;28;20080;-71
2022/08/21 13:46:40;;;;;;;11.38;3.08;;;;;;;;;;4998622;28;20064;-68
2022/08/21 13:49:07;;;;;;;11.85;3.05;;;;;;;;;;5008597;28;20128;-67
2022/08/21 13:51:33;;;;;;;11.38;2.78;;;;;;;;;;5006372;28;20057;-68
2022/08/21 13:53:59;;;;;;;14.45;3.25;;;;;;;;;;5006527;28;20124;-68
2022/08/21 13:56:32;;;;;;;12.32;3.38;;;;;;;;;;5017464;28;20061;-68
2022/08/21 13:59:00;;;;;;;14.02;3.25;;;;;;;;;;4988432;28;20058;-68
2022/08/21 14:01:31;;;;;;;12.27;2.70;;;;;;;;;;4991155;28;20042;-69
2022/08/21 14:04:02;;;;;;;13.77;2.85;;;;;;;;;;5001862;28;20038;-69
2022/08/21 14:06:28;;;;;;;14.32;3.13;;;;;;;;;;4990044;28;20058;-68
2022/08/21 14:08:57;;;;;;;10.75;2.97;;;;;;;;;;5001906;28;20392;-67
2022/08/21 14:11:26;;;;;;;12.40;2.70;;;;;;;;;;5006509;28;20492;-68
2022/08/21 14:13:55;;;;;;;10.30;3.08;;;;;;;;;;5007947;28;20435;-68
2022/08/21 14:16:26;;;;;;;13.45;2.70;;;;;;;;;;4998913;28;20131;-68
2022/08/21 14:18:54;;;;;;;9.20;2.40;;;;;;;;;;5001427;28;20065;-70
2022/08/21 14:21:50;;;;;;;12.60;2.75;;;;;;;;;;5005659;28;20120;-72
2022/08/21 14:24:22;;;;;;;10.27;2.60;;;;;;;;;;5003210;28;20155;-68
2022/08/21 14:26:54;;;;;;;10.00;2.65;;;;;;;;;;5010826;28;20046;-68
2022/08/21 14:29:22;;;;;;;11.02;2.80;;;;;;;;;;5011864;28;20073;-68
2022/08/21 14:31:50;;;;;;;10.25;2.50;;;;;;;;;;5011073;28;20069;-70
2022/08/21 14:34:17;;;;;;;12.32;2.70;;;;;;;;;;4994236;28;20050;-71
2022/08/21 14:36:43;;;;;;;11.52;2.55;;;;;;;;;;5001956;28;20120;-69
2022/08/21 14:39:09;;;;;;;16.83;2.88;;;;;;;;;;4991419;28;20129;-68
2022/08/21 14:41:36;;;;;;;12.90;2.80;;;;;;;;;;5007599;28;20104;-71
2022/08/21 14:44:03;;;;;;;11.13;2.67;;;;;;;;;;4991053;28;20137;-69
2022/08/21 14:46:29;;;;;;;11.77;2.97;;;;;;;;;;4999103;28;20050;-68
2022/08/21 14:48:55;;;;;;;12.23;3.03;;;;;;;;;;4995647;28;20085;-69
2022/08/21 14:51:21;;;;;;;;;;;;;;;;;;4992417;28;20046;-67
2022/08/21 14:53:48;;;;;;;11.55;2.65;;;;;;;;;;4991810;28;20007;-68